sensor_id;sensor_type;location;lat;lon;timestamp;P1;durP1;ratioP1;P2;durP2;ratioP2
12451;SDS011;6291;48.924;12.204;2022-10-16T00:02:46;7.53;;;6.60;;
12451;SDS011;6291;48.924;12.204;2022-10-16T00:07:49;9.43;;;8.18;;
12451;SDS011;6291;48.924;12.204;2022-10-16T00:12:52;7.13;;;6.43;;
12451;SDS011;6291;48.924;12.204;2022-10-16T00:17:57;6.95;;;6.30;;
12451;SDS011;6291;48.924;12.204;2022-10-16T00:23:02;9.82;;;7.38;;
12451;SDS011;6291;48.924;12.204;2022-10-16T00:28:06;11.43;;;9.00;;
12451;SDS011;6291;48.924;12.204;2022-10-16T00:33:11;11.80;;;9.48;;
12451;SDS011;6291;48.924;12.204;2022-10-16T00:38:14;9.73;;;7.47;;
12451;SDS011;6291;48.924;12.204;2022-10-16T00:43:32;9.60;;;7.03;;
12451;SDS011;6291;48.924;12.204;2022-10-16T00:48:39;7.47;;;5.80;;
12451;SDS011;6291;48.924;12.204;2022-10-16T00:53:43;6.47;;;5.10;;
12451;SDS011;6291;48.924;12.204;2022-10-16T00:58:47;7.47;;;5.88;;
12451;SDS011;6291;48.924;12.204;2022-10-16T01:03:52;7.07;;;5.70;;
12451;SDS011;6291;48.924;12.204;2022-10-16T01:08:58;6.28;;;5.63;;
12451;SDS011;6291;48.924;12.204;2022-10-16T01:14:11;6.70;;;6.10;;
12451;SDS011;6291;48.924;12.204;2022-10-16T01:19:26;9.45;;;6.10;;
12451;SDS011;6291;48.924;12.204;2022-10-16T01:24:43;6.88;;;6.13;;
12451;SDS011;6291;48.924;12.204;2022-10-16T01:29:53;6.72;;;5.28;;
12451;SDS011;6291;48.924;12.204;2022-10-16T01:34:59;6.03;;;5.43;;
12451;SDS011;6291;48.924;12.204;2022-10-16T01:40:07;8.13;;;4.77;;
12451;SDS011;6291;48.924;12.204;2022-10-16T01:45:16;7.23;;;4.60;;
12451;SDS011;6291;48.924;12.204;2022-10-16T01:50:21;7.93;;;5.80;;
12451;SDS011;6291;48.924;12.204;2022-10-16T01:55:27;5.47;;;4.63;;
12451;SDS011;6291;48.924;12.204;2022-10-16T02:00:33;6.95;;;4.68;;
12451;SDS011;6291;48.924;12.204;2022-10-16T02:05:40;6.27;;;4.17;;
12451;SDS011;6291;48.924;12.204;2022-10-16T02:10:47;7.40;;;5.40;;
12451;SDS011;6291;48.924;12.204;2022-10-16T02:15:52;7.23;;;5.90;;
12451;SDS011;6291;48.924;12.204;2022-10-16T02:20:57;8.38;;;5.78;;
12451;SDS011;6291;48.924;12.204;2022-10-16T02:26:03;9.48;;;6.18;;
12451;SDS011;6291;48.924;12.204;2022-10-16T02:31:11;9.15;;;7.00;;
12451;SDS011;6291;48.924;12.204;2022-10-16T02:36:18;8.40;;;6.23;;
12451;SDS011;6291;48.924;12.204;2022-10-16T02:41:22;8.95;;;6.70;;
12451;SDS011;6291;48.924;12.204;2022-10-16T02:46:27;6.63;;;5.85;;
12451;SDS011;6291;48.924;12.204;2022-10-16T02:51:31;6.05;;;5.45;;
12451;SDS011;6291;48.924;12.204;2022-10-16T02:56:34;6.22;;;5.53;;
12451;SDS011;6291;48.924;12.204;2022-10-16T03:01:39;6.63;;;5.18;;
12451;SDS011;6291;48.924;12.204;2022-10-16T03:06:42;5.60;;;5.00;;
12451;SDS011;6291;48.924;12.204;2022-10-16T03:11:45;6.53;;;5.10;;
12451;SDS011;6291;48.924;12.204;2022-10-16T03:16:50;8.65;;;6.20;;
12451;SDS011;6291;48.924;12.204;2022-10-16T03:21:53;8.37;;;5.33;;
12451;SDS011;6291;48.924;12.204;2022-10-16T03:26:57;6.93;;;6.23;;
12451;SDS011;6291;48.924;12.204;2022-10-16T03:32:02;5.68;;;4.90;;
12451;SDS011;6291;48.924;12.204;2022-10-16T03:37:06;5.90;;;4.82;;
12451;SDS011;6291;48.924;12.204;2022-10-16T03:42:09;6.03;;;4.85;;
12451;SDS011;6291;48.924;12.204;2022-10-16T03:47:14;9.35;;;5.93;;
12451;SDS011;6291;48.924;12.204;2022-10-16T03:52:22;6.78;;;5.55;;
12451;SDS011;6291;48.924;12.204;2022-10-16T03:57:25;8.68;;;6.60;;
12451;SDS011;6291;48.924;12.204;2022-10-16T04:02:30;8.80;;;6.40;;
12451;SDS011;6291;48.924;12.204;2022-10-16T04:07:34;9.73;;;6.85;;
12451;SDS011;6291;48.924;12.204;2022-10-16T04:12:37;11.48;;;9.30;;
12451;SDS011;6291;48.924;12.204;2022-10-16T04:17:42;18.10;;;9.75;;
12451;SDS011;6291;48.924;12.204;2022-10-16T04:22:45;16.20;;;8.88;;
12451;SDS011;6291;48.924;12.204;2022-10-16T04:27:49;9.63;;;8.38;;
12451;SDS011;6291;48.924;12.204;2022-10-16T04:32:53;9.87;;;8.17;;
12451;SDS011;6291;48.924;12.204;2022-10-16T04:37:57;10.68;;;7.72;;
12451;SDS011;6291;48.924;12.204;2022-10-16T04:43:00;7.53;;;6.60;;
12451;SDS011;6291;48.924;12.204;2022-10-16T04:48:05;7.05;;;4.95;;
12451;SDS011;6291;48.924;12.204;2022-10-16T04:53:08;6.03;;;5.00;;
12451;SDS011;6291;48.924;12.204;2022-10-16T04:58:12;7.83;;;5.40;;
12451;SDS011;6291;48.924;12.204;2022-10-16T05:03:16;8.07;;;5.10;;
12451;SDS011;6291;48.924;12.204;2022-10-16T05:08:20;6.43;;;5.23;;
12451;SDS011;6291;48.924;12.204;2022-10-16T05:13:23;6.78;;;4.90;;
12451;SDS011;6291;48.924;12.204;2022-10-16T05:18:28;7.45;;;5.00;;
12451;SDS011;6291;48.924;12.204;2022-10-16T05:23:32;7.10;;;6.20;;
12451;SDS011;6291;48.924;12.204;2022-10-16T05:28:35;7.38;;;6.10;;
12451;SDS011;6291;48.924;12.204;2022-10-16T05:33:40;9.20;;;6.50;;
12451;SDS011;6291;48.924;12.204;2022-10-16T05:38:45;15.23;;;11.30;;
12451;SDS011;6291;48.924;12.204;2022-10-16T05:43:48;14.85;;;10.18;;
12451;SDS011;6291;48.924;12.204;2022-10-16T05:48:53;14.63;;;10.77;;
12451;SDS011;6291;48.924;12.204;2022-10-16T05:53:56;14.07;;;11.90;;
12451;SDS011;6291;48.924;12.204;2022-10-16T05:59:00;16.77;;;12.77;;
12451;SDS011;6291;48.924;12.204;2022-10-16T06:04:04;12.90;;;10.70;;
12451;SDS011;6291;48.924;12.204;2022-10-16T06:09:08;12.98;;;10.50;;
12451;SDS011;6291;48.924;12.204;2022-10-16T06:14:12;15.07;;;11.15;;
12451;SDS011;6291;48.924;12.204;2022-10-16T06:19:17;11.45;;;9.77;;
12451;SDS011;6291;48.924;12.204;2022-10-16T06:24:20;11.85;;;9.88;;
12451;SDS011;6291;48.924;12.204;2022-10-16T06:29:23;10.23;;;9.18;;
12451;SDS011;6291;48.924;12.204;2022-10-16T06:34:28;9.88;;;8.85;;
12451;SDS011;6291;48.924;12.204;2022-10-16T06:39:32;8.02;;;6.85;;
12451;SDS011;6291;48.924;12.204;2022-10-16T06:44:35;8.85;;;6.47;;
12451;SDS011;6291;48.924;12.204;2022-10-16T06:49:40;6.72;;;5.85;;
12451;SDS011;6291;48.924;12.204;2022-10-16T06:54:43;7.68;;;6.85;;
12451;SDS011;6291;48.924;12.204;2022-10-16T06:59:47;9.63;;;7.13;;
12451;SDS011;6291;48.924;12.204;2022-10-16T07:04:57;9.87;;;7.80;;
12451;SDS011;6291;48.924;12.204;2022-10-16T07:10:00;7.47;;;6.00;;
12451;SDS011;6291;48.924;12.204;2022-10-16T07:15:04;11.23;;;6.38;;
12451;SDS011;6291;48.924;12.204;2022-10-16T07:20:10;5.75;;;4.82;;
12451;SDS011;6291;48.924;12.204;2022-10-16T07:25:13;5.40;;;3.80;;
12451;SDS011;6291;48.924;12.204;2022-10-16T07:30:16;5.37;;;3.40;;
12451;SDS011;6291;48.924;12.204;2022-10-16T07:35:21;4.85;;;3.50;;
12451;SDS011;6291;48.924;12.204;2022-10-16T07:40:24;3.67;;;2.93;;
12451;SDS011;6291;48.924;12.204;2022-10-16T07:45:28;3.92;;;3.00;;
12451;SDS011;6291;48.924;12.204;2022-10-16T07:50:33;3.30;;;2.65;;
12451;SDS011;6291;48.924;12.204;2022-10-16T07:55:36;3.33;;;2.22;;
12451;SDS011;6291;48.924;12.204;2022-10-16T08:00:40;2.53;;;2.30;;
12451;SDS011;6291;48.924;12.204;2022-10-16T08:05:44;3.25;;;2.75;;
12451;SDS011;6291;48.924;12.204;2022-10-16T08:10:48;3.60;;;2.50;;
12451;SDS011;6291;48.924;12.204;2022-10-16T08:15:53;3.30;;;2.00;;
12451;SDS011;6291;48.924;12.204;2022-10-16T08:20:59;3.55;;;2.17;;
12451;SDS011;6291;48.924;12.204;2022-10-16T08:26:03;3.27;;;2.10;;
12451;SDS011;6291;48.924;12.204;2022-10-16T08:31:07;3.05;;;1.95;;
12451;SDS011;6291;48.924;12.204;2022-10-16T08:36:14;3.07;;;2.13;;
12451;SDS011;6291;48.924;12.204;2022-10-16T08:41:32;3.00;;;2.40;;
12451;SDS011;6291;48.924;12.204;2022-10-16T08:46:55;3.00;;;2.30;;
12451;SDS011;6291;48.924;12.204;2022-10-16T08:52:10;4.10;;;2.08;;
12451;SDS011;6291;48.924;12.204;2022-10-16T08:57:16;2.65;;;2.20;;
12451;SDS011;6291;48.924;12.204;2022-10-16T09:02:27;6.43;;;1.85;;
12451;SDS011;6291;48.924;12.204;2022-10-16T09:07:38;2.60;;;1.90;;
12451;SDS011;6291;48.924;12.204;2022-10-16T09:12:49;2.47;;;1.70;;
12451;SDS011;6291;48.924;12.204;2022-10-16T09:17:59;3.95;;;1.92;;
12451;SDS011;6291;48.924;12.204;2022-10-16T09:23:14;1.67;;;1.50;;
12451;SDS011;6291;48.924;12.204;2022-10-16T09:28:19;3.25;;;1.60;;
12451;SDS011;6291;48.924;12.204;2022-10-16T09:33:23;3.65;;;1.80;;
12451;SDS011;6291;48.924;12.204;2022-10-16T09:38:34;1.90;;;1.60;;
12451;SDS011;6291;48.924;12.204;2022-10-16T09:43:39;2.90;;;1.52;;
12451;SDS011;6291;48.924;12.204;2022-10-16T09:48:44;2.38;;;1.60;;
12451;SDS011;6291;48.924;12.204;2022-10-16T09:53:55;2.03;;;1.50;;
12451;SDS011;6291;48.924;12.204;2022-10-16T09:59:02;2.40;;;1.60;;
12451;SDS011;6291;48.924;12.204;2022-10-16T10:04:12;2.08;;;1.38;;
12451;SDS011;6291;48.924;12.204;2022-10-16T10:09:19;3.40;;;1.20;;
12451;SDS011;6291;48.924;12.204;2022-10-16T10:14:24;1.40;;;1.30;;
12451;SDS011;6291;48.924;12.204;2022-10-16T10:19:37;3.92;;;1.40;;
12451;SDS011;6291;48.924;12.204;2022-10-16T10:24:43;2.88;;;1.30;;
12451;SDS011;6291;48.924;12.204;2022-10-16T10:29:48;1.55;;;1.38;;
12451;SDS011;6291;48.924;12.204;2022-10-16T10:35:05;3.33;;;1.30;;
12451;SDS011;6291;48.924;12.204;2022-10-16T10:40:21;2.00;;;1.30;;
12451;SDS011;6291;48.924;12.204;2022-10-16T10:45:36;1.30;;;1.20;;
12451;SDS011;6291;48.924;12.204;2022-10-16T10:50:45;2.88;;;1.15;;
12451;SDS011;6291;48.924;12.204;2022-10-16T10:55:54;1.50;;;1.10;;
12451;SDS011;6291;48.924;12.204;2022-10-16T11:01:04;2.37;;;1.23;;
12451;SDS011;6291;48.924;12.204;2022-10-16T11:06:12;1.40;;;1.20;;
12451;SDS011;6291;48.924;12.204;2022-10-16T11:11:23;2.27;;;1.20;;
12451;SDS011;6291;48.924;12.204;2022-10-16T11:16:34;1.58;;;1.48;;
12451;SDS011;6291;48.924;12.204;2022-10-16T11:21:43;2.25;;;1.50;;
12451;SDS011;6291;48.924;12.204;2022-10-16T11:26:53;2.88;;;1.55;;
12451;SDS011;6291;48.924;12.204;2022-10-16T11:31:59;1.93;;;1.40;;
12451;SDS011;6291;48.924;12.204;2022-10-16T11:37:10;1.33;;;1.10;;
12451;SDS011;6291;48.924;12.204;2022-10-16T11:42:18;3.58;;;1.42;;
12451;SDS011;6291;48.924;12.204;2022-10-16T11:47:26;2.35;;;1.15;;
12451;SDS011;6291;48.924;12.204;2022-10-16T11:52:57;1.98;;;1.30;;
12451;SDS011;6291;48.924;12.204;2022-10-16T11:58:07;2.23;;;1.20;;
12451;SDS011;6291;48.924;12.204;2022-10-16T12:03:18;1.80;;;1.20;;
12451;SDS011;6291;48.924;12.204;2022-10-16T12:08:29;1.30;;;1.10;;
12451;SDS011;6291;48.924;12.204;2022-10-16T12:13:34;2.20;;;1.17;;
12451;SDS011;6291;48.924;12.204;2022-10-16T12:18:39;2.65;;;1.30;;
12451;SDS011;6291;48.924;12.204;2022-10-16T12:23:46;1.90;;;1.23;;
12451;SDS011;6291;48.924;12.204;2022-10-16T12:28:53;1.50;;;1.40;;
12451;SDS011;6291;48.924;12.204;2022-10-16T12:33:58;3.20;;;1.48;;
12451;SDS011;6291;48.924;12.204;2022-10-16T12:39:03;4.10;;;1.40;;
12451;SDS011;6291;48.924;12.204;2022-10-16T12:44:21;2.00;;;1.30;;
12451;SDS011;6291;48.924;12.204;2022-10-16T12:49:32;3.70;;;1.20;;
12451;SDS011;6291;48.924;12.204;2022-10-16T12:54:41;1.50;;;1.40;;
12451;SDS011;6291;48.924;12.204;2022-10-16T12:59:48;3.78;;;2.25;;
12451;SDS011;6291;48.924;12.204;2022-10-16T13:05:02;2.33;;;1.33;;
12451;SDS011;6291;48.924;12.204;2022-10-16T13:10:18;3.30;;;1.20;;
12451;SDS011;6291;48.924;12.204;2022-10-16T13:15:34;2.03;;;1.08;;
12451;SDS011;6291;48.924;12.204;2022-10-16T13:20:59;2.60;;;1.30;;
12451;SDS011;6291;48.924;12.204;2022-10-16T13:26:15;1.80;;;1.48;;
12451;SDS011;6291;48.924;12.204;2022-10-16T13:31:27;2.78;;;1.30;;
12451;SDS011;6291;48.924;12.204;2022-10-16T13:36:34;2.30;;;1.50;;
12451;SDS011;6291;48.924;12.204;2022-10-16T13:41:44;1.97;;;1.23;;
12451;SDS011;6291;48.924;12.204;2022-10-16T13:46:59;1.55;;;1.45;;
12451;SDS011;6291;48.924;12.204;2022-10-16T13:52:02;2.70;;;1.40;;
12451;SDS011;6291;48.924;12.204;2022-10-16T13:57:06;2.30;;;1.50;;
12451;SDS011;6291;48.924;12.204;2022-10-16T14:02:29;3.90;;;1.50;;
12451;SDS011;6291;48.924;12.204;2022-10-16T14:07:36;1.85;;;1.75;;
12451;SDS011;6291;48.924;12.204;2022-10-16T14:12:40;2.42;;;1.42;;
12451;SDS011;6291;48.924;12.204;2022-10-16T14:17:45;2.33;;;1.30;;
12451;SDS011;6291;48.924;12.204;2022-10-16T14:23:00;1.60;;;1.38;;
12451;SDS011;6291;48.924;12.204;2022-10-16T14:28:13;2.53;;;1.70;;
12451;SDS011;6291;48.924;12.204;2022-10-16T14:33:22;2.13;;;1.55;;
12451;SDS011;6291;48.924;12.204;2022-10-16T14:38:28;1.90;;;1.70;;
12451;SDS011;6291;48.924;12.204;2022-10-16T14:43:32;2.20;;;1.40;;
12451;SDS011;6291;48.924;12.204;2022-10-16T14:48:41;2.58;;;2.33;;
12451;SDS011;6291;48.924;12.204;2022-10-16T14:53:45;2.72;;;2.47;;
12451;SDS011;6291;48.924;12.204;2022-10-16T14:58:49;2.90;;;2.30;;
12451;SDS011;6291;48.924;12.204;2022-10-16T15:03:55;3.40;;;2.70;;
12451;SDS011;6291;48.924;12.204;2022-10-16T15:08:58;3.37;;;2.90;;
12451;SDS011;6291;48.924;12.204;2022-10-16T15:14:02;3.17;;;2.60;;
12451;SDS011;6291;48.924;12.204;2022-10-16T15:19:07;3.40;;;2.60;;
12451;SDS011;6291;48.924;12.204;2022-10-16T15:24:11;3.03;;;2.50;;
12451;SDS011;6291;48.924;12.204;2022-10-16T15:29:21;3.05;;;2.70;;
12451;SDS011;6291;48.924;12.204;2022-10-16T15:34:26;5.13;;;3.70;;
12451;SDS011;6291;48.924;12.204;2022-10-16T15:39:29;9.48;;;7.07;;
12451;SDS011;6291;48.924;12.204;2022-10-16T15:44:32;5.85;;;5.25;;
12451;SDS011;6291;48.924;12.204;2022-10-16T15:49:37;5.63;;;4.30;;
12451;SDS011;6291;48.924;12.204;2022-10-16T15:54:41;6.90;;;4.60;;
12451;SDS011;6291;48.924;12.204;2022-10-16T15:59:50;6.05;;;5.28;;
12451;SDS011;6291;48.924;12.204;2022-10-16T16:04:55;6.47;;;5.73;;
12451;SDS011;6291;48.924;12.204;2022-10-16T16:09:58;8.15;;;5.00;;
12451;SDS011;6291;48.924;12.204;2022-10-16T16:15:02;7.18;;;6.20;;
12451;SDS011;6291;48.924;12.204;2022-10-16T16:20:08;8.00;;;6.55;;
12451;SDS011;6291;48.924;12.204;2022-10-16T16:25:12;8.55;;;6.25;;
12451;SDS011;6291;48.924;12.204;2022-10-16T16:30:16;7.75;;;6.63;;
12451;SDS011;6291;48.924;12.204;2022-10-16T16:35:29;6.60;;;5.93;;
12451;SDS011;6291;48.924;12.204;2022-10-16T16:40:32;7.07;;;6.25;;
12451;SDS011;6291;48.924;12.204;2022-10-16T16:45:35;7.60;;;6.78;;
12451;SDS011;6291;48.924;12.204;2022-10-16T16:50:40;8.02;;;6.50;;
12451;SDS011;6291;48.924;12.204;2022-10-16T16:55:43;7.80;;;6.95;;
12451;SDS011;6291;48.924;12.204;2022-10-16T17:00:47;8.70;;;7.68;;
12451;SDS011;6291;48.924;12.204;2022-10-16T17:05:58;11.07;;;8.48;;
12451;SDS011;6291;48.924;12.204;2022-10-16T17:11:03;9.88;;;8.20;;
12451;SDS011;6291;48.924;12.204;2022-10-16T17:16:07;10.35;;;8.48;;
12451;SDS011;6291;48.924;12.204;2022-10-16T17:21:12;16.27;;;12.50;;
12451;SDS011;6291;48.924;12.204;2022-10-16T17:26:16;11.40;;;8.85;;
12451;SDS011;6291;48.924;12.204;2022-10-16T17:31:20;13.63;;;9.27;;
12451;SDS011;6291;48.924;12.204;2022-10-16T17:36:26;12.50;;;10.43;;
12451;SDS011;6291;48.924;12.204;2022-10-16T17:41:31;11.23;;;9.32;;
12451;SDS011;6291;48.924;12.204;2022-10-16T17:46:36;14.00;;;10.30;;
12451;SDS011;6291;48.924;12.204;2022-10-16T17:51:43;15.57;;;10.30;;
12451;SDS011;6291;48.924;12.204;2022-10-16T17:56:46;13.60;;;10.90;;
12451;SDS011;6291;48.924;12.204;2022-10-16T18:01:49;9.50;;;7.57;;
12451;SDS011;6291;48.924;12.204;2022-10-16T18:06:54;9.30;;;7.63;;
12451;SDS011;6291;48.924;12.204;2022-10-16T18:11:58;10.07;;;7.07;;
12451;SDS011;6291;48.924;12.204;2022-10-16T18:17:01;10.20;;;8.20;;
12451;SDS011;6291;48.924;12.204;2022-10-16T18:22:06;10.17;;;7.97;;
12451;SDS011;6291;48.924;12.204;2022-10-16T18:27:09;10.80;;;8.17;;
12451;SDS011;6291;48.924;12.204;2022-10-16T18:32:12;13.30;;;8.97;;
12451;SDS011;6291;48.924;12.204;2022-10-16T18:37:17;10.33;;;8.73;;
12451;SDS011;6291;48.924;12.204;2022-10-16T18:42:21;10.38;;;8.70;;
12451;SDS011;6291;48.924;12.204;2022-10-16T18:47:25;11.13;;;9.17;;
12451;SDS011;6291;48.924;12.204;2022-10-16T18:52:32;9.33;;;8.33;;
12451;SDS011;6291;48.924;12.204;2022-10-16T18:57:35;10.73;;;7.50;;
12451;SDS011;6291;48.924;12.204;2022-10-16T19:02:38;9.13;;;7.60;;
12451;SDS011;6291;48.924;12.204;2022-10-16T19:07:45;11.03;;;6.93;;
12451;SDS011;6291;48.924;12.204;2022-10-16T19:12:49;7.35;;;6.57;;
12451;SDS011;6291;48.924;12.204;2022-10-16T19:17:52;9.35;;;6.70;;
12451;SDS011;6291;48.924;12.204;2022-10-16T19:22:57;9.27;;;6.80;;
12451;SDS011;6291;48.924;12.204;2022-10-16T19:28:00;8.98;;;6.72;;
12451;SDS011;6291;48.924;12.204;2022-10-16T19:33:07;10.40;;;6.90;;
12451;SDS011;6291;48.924;12.204;2022-10-16T19:38:12;11.23;;;7.43;;
12451;SDS011;6291;48.924;12.204;2022-10-16T19:43:15;9.90;;;8.43;;
12451;SDS011;6291;48.924;12.204;2022-10-16T19:48:19;11.30;;;7.95;;
12451;SDS011;6291;48.924;12.204;2022-10-16T19:53:24;10.25;;;6.82;;
12451;SDS011;6291;48.924;12.204;2022-10-16T19:58:28;10.90;;;8.23;;
12451;SDS011;6291;48.924;12.204;2022-10-16T20:03:32;9.93;;;7.60;;
12451;SDS011;6291;48.924;12.204;2022-10-16T20:08:38;12.37;;;10.57;;
12451;SDS011;6291;48.924;12.204;2022-10-16T20:13:43;20.27;;;14.47;;
12451;SDS011;6291;48.924;12.204;2022-10-16T20:18:47;15.63;;;11.20;;
12451;SDS011;6291;48.924;12.204;2022-10-16T20:23:53;13.63;;;10.80;;
12451;SDS011;6291;48.924;12.204;2022-10-16T20:28:57;15.57;;;10.40;;
12451;SDS011;6291;48.924;12.204;2022-10-16T20:34:01;13.93;;;10.30;;
12451;SDS011;6291;48.924;12.204;2022-10-16T20:39:07;13.85;;;10.10;;
12451;SDS011;6291;48.924;12.204;2022-10-16T20:44:14;12.43;;;10.40;;
12451;SDS011;6291;48.924;12.204;2022-10-16T20:49:17;11.93;;;10.40;;
12451;SDS011;6291;48.924;12.204;2022-10-16T20:54:43;12.95;;;9.63;;
12451;SDS011;6291;48.924;12.204;2022-10-16T20:59:47;13.43;;;10.23;;
12451;SDS011;6291;48.924;12.204;2022-10-16T21:04:55;12.07;;;9.55;;
12451;SDS011;6291;48.924;12.204;2022-10-16T21:10:00;12.70;;;9.57;;
12451;SDS011;6291;48.924;12.204;2022-10-16T21:15:03;14.20;;;9.68;;
12451;SDS011;6291;48.924;12.204;2022-10-16T21:20:15;12.55;;;9.93;;
12451;SDS011;6291;48.924;12.204;2022-10-16T21:25:20;12.65;;;9.52;;
12451;SDS011;6291;48.924;12.204;2022-10-16T21:30:23;13.93;;;9.60;;
12451;SDS011;6291;48.924;12.204;2022-10-16T21:35:27;15.90;;;9.80;;
12451;SDS011;6291;48.924;12.204;2022-10-16T21:40:33;15.40;;;9.65;;
12451;SDS011;6291;48.924;12.204;2022-10-16T21:45:37;13.03;;;9.60;;
12451;SDS011;6291;48.924;12.204;2022-10-16T21:55:50;13.52;;;9.18;;
12451;SDS011;6291;48.924;12.204;2022-10-16T22:00:53;14.27;;;9.88;;
12451;SDS011;6291;48.924;12.204;2022-10-16T22:05:59;12.70;;;9.77;;
12451;SDS011;6291;48.924;12.204;2022-10-16T22:11:09;16.37;;;10.87;;
12451;SDS011;6291;48.924;12.204;2022-10-16T22:16:13;16.23;;;11.40;;
12451;SDS011;6291;48.924;12.204;2022-10-16T22:21:17;16.58;;;10.88;;
12451;SDS011;6291;48.924;12.204;2022-10-16T22:26:22;16.40;;;11.13;;
12451;SDS011;6291;48.924;12.204;2022-10-16T22:31:25;14.47;;;9.93;;
12451;SDS011;6291;48.924;12.204;2022-10-16T22:36:29;12.95;;;8.98;;
12451;SDS011;6291;48.924;12.204;2022-10-16T22:41:33;13.10;;;8.38;;
12451;SDS011;6291;48.924;12.204;2022-10-16T22:46:37;14.75;;;8.27;;
12451;SDS011;6291;48.924;12.204;2022-10-16T22:51:40;10.52;;;7.97;;
12451;SDS011;6291;48.924;12.204;2022-10-16T22:56:45;12.10;;;7.47;;
12451;SDS011;6291;48.924;12.204;2022-10-16T23:01:48;9.98;;;7.68;;
12451;SDS011;6291;48.924;12.204;2022-10-16T23:06:51;10.93;;;7.05;;
12451;SDS011;6291;48.924;12.204;2022-10-16T23:11:56;9.40;;;7.03;;
12451;SDS011;6291;48.924;12.204;2022-10-16T23:16:59;9.47;;;6.67;;
12451;SDS011;6291;48.924;12.204;2022-10-16T23:22:03;9.33;;;6.57;;
12451;SDS011;6291;48.924;12.204;2022-10-16T23:27:07;8.80;;;7.07;;
12451;SDS011;6291;48.924;12.204;2022-10-16T23:32:11;8.23;;;6.80;;
12451;SDS011;6291;48.924;12.204;2022-10-16T23:37:14;10.40;;;7.33;;
12451;SDS011;6291;48.924;12.204;2022-10-16T23:42:19;11.20;;;8.30;;
12451;SDS011;6291;48.924;12.204;2022-10-16T23:47:22;11.23;;;8.02;;
12451;SDS011;6291;48.924;12.204;2022-10-16T23:52:26;8.88;;;7.53;;
12451;SDS011;6291;48.924;12.204;2022-10-16T23:57:31;13.52;;;9.30;;
